sensor_id;sensor_type;location;lat;lon;timestamp;P1;durP1;ratioP1;P2;durP2;ratioP2
19782;SDS011;10051;40.294;-3.754;2023-06-05T00:00:41;3.65;;;2.75;;
19782;SDS011;10051;40.294;-3.754;2023-06-05T00:03:08;4.35;;;2.90;;
19782;SDS011;10051;40.294;-3.754;2023-06-05T00:05:34;4.85;;;2.78;;
19782;SDS011;10051;40.294;-3.754;2023-06-05T00:08:01;5.15;;;2.85;;
19782;SDS011;10051;40.294;-3.754;2023-06-05T00:10:27;8.57;;;3.13;;
19782;SDS011;10051;40.294;-3.754;2023-06-05T00:12:53;3.70;;;2.70;;
19782;SDS011;10051;40.294;-3.754;2023-06-05T00:15:21;5.13;;;3.17;;
19782;SDS011;10051;40.294;-3.754;2023-06-05T00:17:59;5.82;;;2.75;;
19782;SDS011;10051;40.294;-3.754;2023-06-05T00:20:25;7.25;;;3.53;;
19782;SDS011;10051;40.294;-3.754;2023-06-05T00:22:57;5.85;;;3.10;;
19782;SDS011;10051;40.294;-3.754;2023-06-05T00:25:24;5.65;;;3.13;;
19782;SDS011;10051;40.294;-3.754;2023-06-05T00:27:51;5.90;;;3.10;;
19782;SDS011;10051;40.294;-3.754;2023-06-05T00:30:18;5.10;;;3.03;;
19782;SDS011;10051;40.294;-3.754;2023-06-05T00:32:48;4.43;;;3.05;;
19782;SDS011;10051;40.294;-3.754;2023-06-05T00:35:18;6.57;;;3.30;;
19782;SDS011;10051;40.294;-3.754;2023-06-05T00:37:47;5.63;;;3.35;;
19782;SDS011;10051;40.294;-3.754;2023-06-05T00:40:14;4.85;;;3.40;;
19782;SDS011;10051;40.294;-3.754;2023-06-05T00:42:42;6.05;;;3.35;;
19782;SDS011;10051;40.294;-3.754;2023-06-05T00:45:11;6.95;;;3.60;;
19782;SDS011;10051;40.294;-3.754;2023-06-05T00:47:38;6.50;;;3.95;;
19782;SDS011;10051;40.294;-3.754;2023-06-05T00:50:06;7.18;;;3.72;;
19782;SDS011;10051;40.294;-3.754;2023-06-05T00:52:33;7.43;;;3.83;;
19782;SDS011;10051;40.294;-3.754;2023-06-05T00:55:00;5.35;;;3.70;;
19782;SDS011;10051;40.294;-3.754;2023-06-05T00:57:29;6.45;;;3.80;;
19782;SDS011;10051;40.294;-3.754;2023-06-05T01:00:00;9.35;;;4.28;;
19782;SDS011;10051;40.294;-3.754;2023-06-05T01:02:27;6.10;;;3.90;;
19782;SDS011;10051;40.294;-3.754;2023-06-05T01:04:54;7.35;;;4.30;;
19782;SDS011;10051;40.294;-3.754;2023-06-05T01:07:22;7.20;;;4.13;;
19782;SDS011;10051;40.294;-3.754;2023-06-05T01:09:53;5.10;;;3.88;;
19782;SDS011;10051;40.294;-3.754;2023-06-05T01:15:17;8.35;;;4.07;;
19782;SDS011;10051;40.294;-3.754;2023-06-05T01:17:55;6.72;;;3.80;;
19782;SDS011;10051;40.294;-3.754;2023-06-05T01:20:32;7.95;;;4.07;;
19782;SDS011;10051;40.294;-3.754;2023-06-05T01:23:08;6.03;;;3.90;;
19782;SDS011;10051;40.294;-3.754;2023-06-05T01:25:35;6.25;;;3.42;;
19782;SDS011;10051;40.294;-3.754;2023-06-05T01:33:14;6.60;;;3.78;;
19782;SDS011;10051;40.294;-3.754;2023-06-05T01:35:48;6.25;;;3.70;;
19782;SDS011;10051;40.294;-3.754;2023-06-05T01:38:16;6.82;;;3.45;;
19782;SDS011;10051;40.294;-3.754;2023-06-05T01:40:44;5.80;;;3.67;;
19782;SDS011;10051;40.294;-3.754;2023-06-05T01:43:13;5.10;;;3.35;;
19782;SDS011;10051;40.294;-3.754;2023-06-05T01:45:46;6.43;;;3.70;;
19782;SDS011;10051;40.294;-3.754;2023-06-05T01:48:14;7.43;;;3.70;;
19782;SDS011;10051;40.294;-3.754;2023-06-05T01:50:42;6.45;;;3.78;;
19782;SDS011;10051;40.294;-3.754;2023-06-05T01:53:08;9.05;;;3.60;;
19782;SDS011;10051;40.294;-3.754;2023-06-05T01:55:43;6.60;;;3.65;;
19782;SDS011;10051;40.294;-3.754;2023-06-05T01:58:12;5.22;;;3.65;;
19782;SDS011;10051;40.294;-3.754;2023-06-05T02:00:38;11.32;;;3.85;;
19782;SDS011;10051;40.294;-3.754;2023-06-05T02:03:06;7.70;;;4.00;;
19782;SDS011;10051;40.294;-3.754;2023-06-05T02:05:33;7.25;;;4.38;;
19782;SDS011;10051;40.294;-3.754;2023-06-05T02:08:03;8.93;;;4.03;;
19782;SDS011;10051;40.294;-3.754;2023-06-05T02:10:30;6.88;;;4.30;;
19782;SDS011;10051;40.294;-3.754;2023-06-05T02:13:06;6.38;;;4.30;;
19782;SDS011;10051;40.294;-3.754;2023-06-05T02:15:35;6.70;;;4.30;;
19782;SDS011;10051;40.294;-3.754;2023-06-05T02:18:03;6.82;;;4.40;;
19782;SDS011;10051;40.294;-3.754;2023-06-05T02:20:40;6.25;;;4.10;;
19782;SDS011;10051;40.294;-3.754;2023-06-05T02:23:07;6.28;;;4.30;;
19782;SDS011;10051;40.294;-3.754;2023-06-05T02:25:33;7.68;;;4.13;;
19782;SDS011;10051;40.294;-3.754;2023-06-05T02:28:00;6.00;;;4.18;;
19782;SDS011;10051;40.294;-3.754;2023-06-05T02:30:31;8.90;;;4.78;;
19782;SDS011;10051;40.294;-3.754;2023-06-05T02:32:58;8.38;;;4.55;;
19782;SDS011;10051;40.294;-3.754;2023-06-05T02:35:27;7.57;;;4.32;;
19782;SDS011;10051;40.294;-3.754;2023-06-05T02:37:54;8.80;;;4.60;;
19782;SDS011;10051;40.294;-3.754;2023-06-05T02:40:21;7.30;;;4.43;;
19782;SDS011;10051;40.294;-3.754;2023-06-05T02:42:48;7.10;;;4.47;;
19782;SDS011;10051;40.294;-3.754;2023-06-05T02:45:21;9.57;;;4.70;;
19782;SDS011;10051;40.294;-3.754;2023-06-05T02:47:51;7.30;;;4.47;;
19782;SDS011;10051;40.294;-3.754;2023-06-05T02:50:22;9.57;;;4.82;;
19782;SDS011;10051;40.294;-3.754;2023-06-05T02:52:49;8.90;;;4.93;;
19782;SDS011;10051;40.294;-3.754;2023-06-05T02:55:16;9.35;;;5.13;;
19782;SDS011;10051;40.294;-3.754;2023-06-05T02:57:44;10.40;;;5.00;;
19782;SDS011;10051;40.294;-3.754;2023-06-05T03:00:14;8.93;;;5.38;;
19782;SDS011;10051;40.294;-3.754;2023-06-05T03:02:45;8.10;;;5.65;;
19782;SDS011;10051;40.294;-3.754;2023-06-05T03:05:17;8.85;;;5.85;;
19782;SDS011;10051;40.294;-3.754;2023-06-05T03:07:53;9.38;;;5.68;;
19782;SDS011;10051;40.294;-3.754;2023-06-05T03:10:25;8.25;;;5.50;;
19782;SDS011;10051;40.294;-3.754;2023-06-05T03:12:56;8.43;;;5.65;;
19782;SDS011;10051;40.294;-3.754;2023-06-05T03:15:23;8.65;;;5.35;;
19782;SDS011;10051;40.294;-3.754;2023-06-05T03:17:50;8.68;;;5.30;;
19782;SDS011;10051;40.294;-3.754;2023-06-05T03:20:18;10.70;;;5.50;;
19782;SDS011;10051;40.294;-3.754;2023-06-05T03:22:45;7.65;;;5.38;;
19782;SDS011;10051;40.294;-3.754;2023-06-05T03:25:11;9.02;;;5.10;;
19782;SDS011;10051;40.294;-3.754;2023-06-05T03:27:38;11.60;;;5.07;;
19782;SDS011;10051;40.294;-3.754;2023-06-05T03:30:06;9.18;;;5.00;;
19782;SDS011;10051;40.294;-3.754;2023-06-05T03:32:34;10.13;;;4.82;;
19782;SDS011;10051;40.294;-3.754;2023-06-05T03:35:02;8.77;;;5.40;;
19782;SDS011;10051;40.294;-3.754;2023-06-05T03:37:32;10.85;;;5.40;;
19782;SDS011;10051;40.294;-3.754;2023-06-05T03:40:01;6.43;;;4.80;;
19782;SDS011;10051;40.294;-3.754;2023-06-05T03:42:27;9.10;;;4.85;;
19782;SDS011;10051;40.294;-3.754;2023-06-05T03:44:52;6.80;;;4.80;;
19782;SDS011;10051;40.294;-3.754;2023-06-05T03:47:19;7.95;;;4.85;;
19782;SDS011;10051;40.294;-3.754;2023-06-05T03:49:46;8.25;;;4.75;;
19782;SDS011;10051;40.294;-3.754;2023-06-05T03:52:15;8.25;;;5.13;;
19782;SDS011;10051;40.294;-3.754;2023-06-05T03:54:42;9.13;;;5.07;;
19782;SDS011;10051;40.294;-3.754;2023-06-05T03:57:11;8.07;;;5.55;;
19782;SDS011;10051;40.294;-3.754;2023-06-05T03:59:41;9.93;;;6.75;;
19782;SDS011;10051;40.294;-3.754;2023-06-05T04:02:08;12.77;;;7.45;;
19782;SDS011;10051;40.294;-3.754;2023-06-05T04:04:35;9.70;;;7.13;;
19782;SDS011;10051;40.294;-3.754;2023-06-05T04:07:04;12.13;;;6.45;;
19782;SDS011;10051;40.294;-3.754;2023-06-05T04:09:32;10.68;;;6.38;;
19782;SDS011;10051;40.294;-3.754;2023-06-05T04:11:58;8.35;;;5.78;;
19782;SDS011;10051;40.294;-3.754;2023-06-05T04:14:28;8.30;;;6.10;;
19782;SDS011;10051;40.294;-3.754;2023-06-05T04:16:54;10.55;;;5.68;;
19782;SDS011;10051;40.294;-3.754;2023-06-05T04:19:24;9.43;;;6.30;;
19782;SDS011;10051;40.294;-3.754;2023-06-05T04:21:51;11.43;;;5.43;;
19782;SDS011;10051;40.294;-3.754;2023-06-05T04:24:20;8.35;;;5.88;;
19782;SDS011;10051;40.294;-3.754;2023-06-05T04:26:49;8.73;;;5.70;;
19782;SDS011;10051;40.294;-3.754;2023-06-05T04:29:15;10.77;;;5.97;;
19782;SDS011;10051;40.294;-3.754;2023-06-05T04:31:42;11.95;;;6.15;;
19782;SDS011;10051;40.294;-3.754;2023-06-05T04:34:09;12.90;;;6.53;;
19782;SDS011;10051;40.294;-3.754;2023-06-05T04:36:36;14.45;;;6.60;;
19782;SDS011;10051;40.294;-3.754;2023-06-05T04:39:07;11.00;;;6.72;;
19782;SDS011;10051;40.294;-3.754;2023-06-05T04:41:40;11.82;;;7.07;;
19782;SDS011;10051;40.294;-3.754;2023-06-05T04:44:21;12.43;;;6.50;;
19782;SDS011;10051;40.294;-3.754;2023-06-05T04:46:48;12.35;;;6.60;;
19782;SDS011;10051;40.294;-3.754;2023-06-05T04:49:14;8.60;;;6.50;;
19782;SDS011;10051;40.294;-3.754;2023-06-05T04:51:41;11.50;;;6.85;;
19782;SDS011;10051;40.294;-3.754;2023-06-05T04:54:11;11.70;;;6.85;;
19782;SDS011;10051;40.294;-3.754;2023-06-05T04:56:37;11.07;;;6.80;;
19782;SDS011;10051;40.294;-3.754;2023-06-05T04:59:05;13.52;;;7.15;;
19782;SDS011;10051;40.294;-3.754;2023-06-05T05:01:38;12.35;;;7.10;;
19782;SDS011;10051;40.294;-3.754;2023-06-05T05:04:07;10.73;;;7.03;;
19782;SDS011;10051;40.294;-3.754;2023-06-05T05:06:33;10.95;;;7.07;;
19782;SDS011;10051;40.294;-3.754;2023-06-05T05:09:00;11.82;;;7.50;;
19782;SDS011;10051;40.294;-3.754;2023-06-05T05:11:26;13.15;;;7.70;;
19782;SDS011;10051;40.294;-3.754;2023-06-05T05:13:53;11.48;;;7.57;;
19782;SDS011;10051;40.294;-3.754;2023-06-05T05:16:25;14.55;;;7.15;;
19782;SDS011;10051;40.294;-3.754;2023-06-05T05:18:55;9.73;;;7.65;;
19782;SDS011;10051;40.294;-3.754;2023-06-05T05:21:23;9.35;;;7.07;;
19782;SDS011;10051;40.294;-3.754;2023-06-05T05:23:53;10.63;;;6.65;;
19782;SDS011;10051;40.294;-3.754;2023-06-05T05:26:18;12.88;;;7.10;;
19782;SDS011;10051;40.294;-3.754;2023-06-05T05:28:45;13.10;;;6.35;;
19782;SDS011;10051;40.294;-3.754;2023-06-05T05:31:11;10.85;;;6.30;;
19782;SDS011;10051;40.294;-3.754;2023-06-05T05:33:38;8.45;;;6.10;;
19782;SDS011;10051;40.294;-3.754;2023-06-05T05:36:05;9.10;;;6.55;;
19782;SDS011;10051;40.294;-3.754;2023-06-05T05:38:37;10.95;;;6.70;;
19782;SDS011;10051;40.294;-3.754;2023-06-05T05:41:03;11.98;;;6.30;;
19782;SDS011;10051;40.294;-3.754;2023-06-05T05:43:30;11.73;;;5.97;;
19782;SDS011;10051;40.294;-3.754;2023-06-05T05:46:06;10.90;;;5.88;;
19782;SDS011;10051;40.294;-3.754;2023-06-05T05:48:35;8.98;;;5.90;;
19782;SDS011;10051;40.294;-3.754;2023-06-05T05:51:05;9.20;;;6.28;;
19782;SDS011;10051;40.294;-3.754;2023-06-05T05:53:32;12.38;;;6.10;;
19782;SDS011;10051;40.294;-3.754;2023-06-05T05:56:02;9.10;;;5.60;;
19782;SDS011;10051;40.294;-3.754;2023-06-05T05:58:31;10.43;;;5.75;;
19782;SDS011;10051;40.294;-3.754;2023-06-05T06:00:58;9.07;;;5.90;;
19782;SDS011;10051;40.294;-3.754;2023-06-05T06:03:27;8.43;;;5.93;;
19782;SDS011;10051;40.294;-3.754;2023-06-05T06:05:54;10.68;;;5.50;;
19782;SDS011;10051;40.294;-3.754;2023-06-05T06:08:19;8.88;;;5.93;;
19782;SDS011;10051;40.294;-3.754;2023-06-05T06:10:46;10.57;;;5.57;;
19782;SDS011;10051;40.294;-3.754;2023-06-05T06:13:13;10.35;;;5.50;;
19782;SDS011;10051;40.294;-3.754;2023-06-05T06:15:39;8.23;;;5.05;;
19782;SDS011;10051;40.294;-3.754;2023-06-05T06:18:05;8.55;;;5.65;;
19782;SDS011;10051;40.294;-3.754;2023-06-05T06:20:32;11.15;;;5.38;;
19782;SDS011;10051;40.294;-3.754;2023-06-05T06:22:59;10.48;;;4.78;;
19782;SDS011;10051;40.294;-3.754;2023-06-05T06:25:28;11.10;;;5.30;;
19782;SDS011;10051;40.294;-3.754;2023-06-05T06:28:00;9.40;;;4.70;;
19782;SDS011;10051;40.294;-3.754;2023-06-05T06:30:26;6.40;;;4.35;;
19782;SDS011;10051;40.294;-3.754;2023-06-05T06:32:53;9.80;;;5.00;;
19782;SDS011;10051;40.294;-3.754;2023-06-05T06:35:23;7.20;;;4.80;;
19782;SDS011;10051;40.294;-3.754;2023-06-05T06:37:52;9.82;;;4.63;;
19782;SDS011;10051;40.294;-3.754;2023-06-05T06:40:22;11.32;;;5.00;;
19782;SDS011;10051;40.294;-3.754;2023-06-05T06:42:49;11.05;;;5.20;;
19782;SDS011;10051;40.294;-3.754;2023-06-05T06:45:18;8.70;;;4.50;;
19782;SDS011;10051;40.294;-3.754;2023-06-05T06:47:44;10.02;;;4.53;;
19782;SDS011;10051;40.294;-3.754;2023-06-05T06:50:13;8.05;;;4.43;;
19782;SDS011;10051;40.294;-3.754;2023-06-05T06:52:46;7.60;;;4.50;;
19782;SDS011;10051;40.294;-3.754;2023-06-05T06:55:11;10.10;;;4.70;;
19782;SDS011;10051;40.294;-3.754;2023-06-05T06:57:37;8.02;;;4.53;;
19782;SDS011;10051;40.294;-3.754;2023-06-05T07:00:03;6.75;;;4.28;;
19782;SDS011;10051;40.294;-3.754;2023-06-05T07:02:34;7.07;;;4.10;;
19782;SDS011;10051;40.294;-3.754;2023-06-05T07:05:00;7.35;;;4.07;;
19782;SDS011;10051;40.294;-3.754;2023-06-05T07:07:26;5.55;;;4.07;;
19782;SDS011;10051;40.294;-3.754;2023-06-05T07:09:53;7.72;;;4.13;;
19782;SDS011;10051;40.294;-3.754;2023-06-05T07:12:19;8.27;;;4.20;;
19782;SDS011;10051;40.294;-3.754;2023-06-05T07:14:47;9.43;;;3.88;;
19782;SDS011;10051;40.294;-3.754;2023-06-05T07:17:13;5.97;;;4.20;;
19782;SDS011;10051;40.294;-3.754;2023-06-05T07:19:40;6.53;;;3.78;;
19782;SDS011;10051;40.294;-3.754;2023-06-05T07:22:06;6.45;;;3.97;;
19782;SDS011;10051;40.294;-3.754;2023-06-05T07:24:32;7.90;;;4.07;;
19782;SDS011;10051;40.294;-3.754;2023-06-05T07:27:04;7.35;;;3.95;;
19782;SDS011;10051;40.294;-3.754;2023-06-05T07:29:33;9.02;;;4.80;;
19782;SDS011;10051;40.294;-3.754;2023-06-05T07:31:59;7.45;;;3.70;;
19782;SDS011;10051;40.294;-3.754;2023-06-05T07:34:28;5.88;;;3.63;;
19782;SDS011;10051;40.294;-3.754;2023-06-05T07:36:53;7.72;;;4.28;;
19782;SDS011;10051;40.294;-3.754;2023-06-05T07:39:24;7.97;;;4.70;;
19782;SDS011;10051;40.294;-3.754;2023-06-05T07:41:50;7.25;;;4.47;;
19782;SDS011;10051;40.294;-3.754;2023-06-05T07:44:16;9.80;;;4.30;;
19782;SDS011;10051;40.294;-3.754;2023-06-05T07:46:44;9.13;;;4.20;;
19782;SDS011;10051;40.294;-3.754;2023-06-05T07:49:11;7.40;;;4.20;;
19782;SDS011;10051;40.294;-3.754;2023-06-05T07:51:37;7.15;;;4.65;;
19782;SDS011;10051;40.294;-3.754;2023-06-05T07:54:07;8.88;;;4.65;;
19782;SDS011;10051;40.294;-3.754;2023-06-05T07:56:35;10.15;;;4.63;;
19782;SDS011;10051;40.294;-3.754;2023-06-05T07:59:05;6.70;;;4.60;;
19782;SDS011;10051;40.294;-3.754;2023-06-05T08:01:33;8.85;;;4.50;;
19782;SDS011;10051;40.294;-3.754;2023-06-05T08:04:03;8.60;;;4.93;;
19782;SDS011;10051;40.294;-3.754;2023-06-05T08:06:29;8.52;;;4.68;;
19782;SDS011;10051;40.294;-3.754;2023-06-05T08:08:59;9.68;;;4.60;;
19782;SDS011;10051;40.294;-3.754;2023-06-05T08:11:27;8.68;;;5.00;;
19782;SDS011;10051;40.294;-3.754;2023-06-05T08:14:02;8.20;;;4.65;;
19782;SDS011;10051;40.294;-3.754;2023-06-05T08:16:30;10.02;;;5.60;;
19782;SDS011;10051;40.294;-3.754;2023-06-05T08:18:58;10.15;;;4.90;;
19782;SDS011;10051;40.294;-3.754;2023-06-05T08:21:24;8.73;;;4.70;;
19782;SDS011;10051;40.294;-3.754;2023-06-05T08:23:50;5.97;;;3.95;;
19782;SDS011;10051;40.294;-3.754;2023-06-05T08:26:18;7.32;;;4.10;;
19782;SDS011;10051;40.294;-3.754;2023-06-05T08:28:45;7.35;;;4.57;;
19782;SDS011;10051;40.294;-3.754;2023-06-05T08:31:12;9.02;;;4.78;;
19782;SDS011;10051;40.294;-3.754;2023-06-05T08:33:41;7.43;;;3.88;;
19782;SDS011;10051;40.294;-3.754;2023-06-05T08:36:07;6.63;;;4.07;;
19782;SDS011;10051;40.294;-3.754;2023-06-05T08:38:33;5.38;;;3.60;;
19782;SDS011;10051;40.294;-3.754;2023-06-05T08:41:04;5.75;;;3.10;;
19782;SDS011;10051;40.294;-3.754;2023-06-05T08:43:35;4.40;;;2.92;;
19782;SDS011;10051;40.294;-3.754;2023-06-05T08:46:08;5.15;;;3.13;;
19782;SDS011;10051;40.294;-3.754;2023-06-05T08:48:46;5.85;;;3.33;;
19782;SDS011;10051;40.294;-3.754;2023-06-05T08:51:14;6.05;;;3.25;;
19782;SDS011;10051;40.294;-3.754;2023-06-05T08:53:43;5.45;;;3.25;;
19782;SDS011;10051;40.294;-3.754;2023-06-05T08:56:16;5.93;;;3.30;;
19782;SDS011;10051;40.294;-3.754;2023-06-05T08:58:46;5.00;;;3.15;;
19782;SDS011;10051;40.294;-3.754;2023-06-05T09:01:20;7.78;;;3.13;;
19782;SDS011;10051;40.294;-3.754;2023-06-05T09:03:47;7.25;;;3.33;;
19782;SDS011;10051;40.294;-3.754;2023-06-05T09:06:22;6.57;;;3.55;;
19782;SDS011;10051;40.294;-3.754;2023-06-05T09:08:48;6.22;;;3.80;;
19782;SDS011;10051;40.294;-3.754;2023-06-05T09:13:55;7.25;;;4.22;;
19782;SDS011;10051;40.294;-3.754;2023-06-05T09:19:08;7.10;;;4.13;;
19782;SDS011;10051;40.294;-3.754;2023-06-05T09:21:36;5.90;;;3.83;;
19782;SDS011;10051;40.294;-3.754;2023-06-05T09:26:45;6.95;;;4.03;;
19782;SDS011;10051;40.294;-3.754;2023-06-05T09:29:12;7.70;;;3.40;;
19782;SDS011;10051;40.294;-3.754;2023-06-05T09:31:42;5.90;;;3.53;;
19782;SDS011;10051;40.294;-3.754;2023-06-05T09:34:08;7.30;;;3.65;;
19782;SDS011;10051;40.294;-3.754;2023-06-05T09:36:44;5.47;;;3.58;;
19782;SDS011;10051;40.294;-3.754;2023-06-05T09:39:14;10.32;;;3.35;;
19782;SDS011;10051;40.294;-3.754;2023-06-05T09:41:45;8.25;;;4.53;;
19782;SDS011;10051;40.294;-3.754;2023-06-05T09:44:12;7.25;;;3.72;;
19782;SDS011;10051;40.294;-3.754;2023-06-05T09:49:26;8.98;;;4.00;;
19782;SDS011;10051;40.294;-3.754;2023-06-05T09:51:57;6.97;;;3.00;;
19782;SDS011;10051;40.294;-3.754;2023-06-05T09:54:26;6.50;;;3.55;;
19782;SDS011;10051;40.294;-3.754;2023-06-05T09:56:59;6.10;;;3.30;;
19782;SDS011;10051;40.294;-3.754;2023-06-05T09:59:27;7.95;;;3.10;;
19782;SDS011;10051;40.294;-3.754;2023-06-05T10:01:57;4.93;;;2.80;;
19782;SDS011;10051;40.294;-3.754;2023-06-05T10:04:28;5.80;;;3.53;;
19782;SDS011;10051;40.294;-3.754;2023-06-05T10:07:00;6.07;;;3.15;;
19782;SDS011;10051;40.294;-3.754;2023-06-05T10:09:32;6.78;;;3.85;;
19782;SDS011;10051;40.294;-3.754;2023-06-05T10:12:00;5.85;;;3.15;;
19782;SDS011;10051;40.294;-3.754;2023-06-05T10:14:28;7.75;;;3.35;;
19782;SDS011;10051;40.294;-3.754;2023-06-05T10:16:57;7.30;;;3.20;;
19782;SDS011;10051;40.294;-3.754;2023-06-05T10:19:27;5.80;;;3.15;;
19782;SDS011;10051;40.294;-3.754;2023-06-05T10:22:00;6.32;;;3.25;;
19782;SDS011;10051;40.294;-3.754;2023-06-05T10:24:29;6.18;;;3.53;;
19782;SDS011;10051;40.294;-3.754;2023-06-05T10:32:53;5.53;;;3.50;;
19782;SDS011;10051;40.294;-3.754;2023-06-05T10:35:38;6.47;;;3.20;;
19782;SDS011;10051;40.294;-3.754;2023-06-05T10:38:26;5.88;;;3.47;;
19782;SDS011;10051;40.294;-3.754;2023-06-05T10:41:00;5.05;;;3.40;;
19782;SDS011;10051;40.294;-3.754;2023-06-05T10:44:00;7.45;;;3.30;;
19782;SDS011;10051;40.294;-3.754;2023-06-05T10:46:31;7.75;;;3.13;;
19782;SDS011;10051;40.294;-3.754;2023-06-05T10:49:16;7.55;;;3.10;;
19782;SDS011;10051;40.294;-3.754;2023-06-05T10:51:52;5.65;;;3.03;;
19782;SDS011;10051;40.294;-3.754;2023-06-05T10:59:19;5.45;;;2.70;;
19782;SDS011;10051;40.294;-3.754;2023-06-05T11:05:05;3.45;;;2.40;;
19782;SDS011;10051;40.294;-3.754;2023-06-05T11:07:27;3.15;;;2.28;;
19782;SDS011;10051;40.294;-3.754;2023-06-05T11:10:08;4.22;;;2.20;;
19782;SDS011;10051;40.294;-3.754;2023-06-05T11:15:09;5.80;;;3.40;;
19782;SDS011;10051;40.294;-3.754;2023-06-05T11:17:41;5.38;;;2.28;;
19782;SDS011;10051;40.294;-3.754;2023-06-05T11:20:08;4.80;;;2.40;;
19782;SDS011;10051;40.294;-3.754;2023-06-05T11:27:55;6.68;;;2.53;;
19782;SDS011;10051;40.294;-3.754;2023-06-05T11:30:28;5.43;;;2.30;;
19782;SDS011;10051;40.294;-3.754;2023-06-05T11:33:10;2.50;;;1.80;;
19782;SDS011;10051;40.294;-3.754;2023-06-05T11:35:40;3.72;;;2.33;;
19782;SDS011;10051;40.294;-3.754;2023-06-05T11:38:14;2.42;;;1.80;;
19782;SDS011;10051;40.294;-3.754;2023-06-05T11:40:46;3.22;;;1.98;;
19782;SDS011;10051;40.294;-3.754;2023-06-05T11:43:12;3.38;;;1.80;;
19782;SDS011;10051;40.294;-3.754;2023-06-05T11:45:39;24.50;;;13.85;;
19782;SDS011;10051;40.294;-3.754;2023-06-05T11:48:09;14.35;;;8.32;;
19782;SDS011;10051;40.294;-3.754;2023-06-05T11:50:54;4.55;;;2.50;;
19782;SDS011;10051;40.294;-3.754;2023-06-05T11:53:28;3.10;;;2.17;;
19782;SDS011;10051;40.294;-3.754;2023-06-05T11:55:56;6.78;;;2.30;;
19782;SDS011;10051;40.294;-3.754;2023-06-05T11:58:30;4.28;;;2.40;;
19782;SDS011;10051;40.294;-3.754;2023-06-05T12:03:47;4.85;;;1.95;;
19782;SDS011;10051;40.294;-3.754;2023-06-05T12:06:15;5.15;;;3.00;;
19782;SDS011;10051;40.294;-3.754;2023-06-05T12:08:42;2.90;;;1.95;;
19782;SDS011;10051;40.294;-3.754;2023-06-05T12:11:22;4.38;;;2.13;;
19782;SDS011;10051;40.294;-3.754;2023-06-05T12:13:53;3.95;;;1.98;;
19782;SDS011;10051;40.294;-3.754;2023-06-05T12:19:18;3.08;;;1.80;;
19782;SDS011;10051;40.294;-3.754;2023-06-05T12:21:46;3.45;;;1.70;;
19782;SDS011;10051;40.294;-3.754;2023-06-05T12:24:24;2.70;;;2.00;;
19782;SDS011;10051;40.294;-3.754;2023-06-05T12:26:57;3.10;;;2.20;;
19782;SDS011;10051;40.294;-3.754;2023-06-05T12:29:28;7.32;;;2.13;;
19782;SDS011;10051;40.294;-3.754;2023-06-05T12:32:00;9.23;;;2.33;;
19782;SDS011;10051;40.294;-3.754;2023-06-05T12:34:44;9.10;;;5.35;;
19782;SDS011;10051;40.294;-3.754;2023-06-05T12:37:11;3.13;;;2.45;;
19782;SDS011;10051;40.294;-3.754;2023-06-05T12:39:47;3.45;;;2.30;;
19782;SDS011;10051;40.294;-3.754;2023-06-05T12:42:13;3.15;;;1.90;;
19782;SDS011;10051;40.294;-3.754;2023-06-05T12:44:42;3.72;;;1.95;;
19782;SDS011;10051;40.294;-3.754;2023-06-05T12:47:08;2.97;;;2.05;;
19782;SDS011;10051;40.294;-3.754;2023-06-05T12:49:35;2.95;;;1.88;;
19782;SDS011;10051;40.294;-3.754;2023-06-05T12:52:02;2.75;;;2.00;;
19782;SDS011;10051;40.294;-3.754;2023-06-05T12:54:29;4.50;;;2.00;;
19782;SDS011;10051;40.294;-3.754;2023-06-05T12:56:55;2.63;;;1.90;;
19782;SDS011;10051;40.294;-3.754;2023-06-05T12:59:22;2.50;;;1.90;;
19782;SDS011;10051;40.294;-3.754;2023-06-05T13:01:48;2.95;;;2.08;;
19782;SDS011;10051;40.294;-3.754;2023-06-05T13:04:14;3.15;;;2.00;;
19782;SDS011;10051;40.294;-3.754;2023-06-05T13:06:42;3.97;;;1.80;;
19782;SDS011;10051;40.294;-3.754;2023-06-05T13:09:09;2.90;;;1.75;;
19782;SDS011;10051;40.294;-3.754;2023-06-05T13:11:35;5.80;;;1.80;;
19782;SDS011;10051;40.294;-3.754;2023-06-05T13:14:02;2.40;;;1.70;;
19782;SDS011;10051;40.294;-3.754;2023-06-05T13:16:29;2.30;;;1.80;;
19782;SDS011;10051;40.294;-3.754;2023-06-05T13:18:59;2.88;;;2.15;;
19782;SDS011;10051;40.294;-3.754;2023-06-05T13:21:26;3.55;;;2.28;;
19782;SDS011;10051;40.294;-3.754;2023-06-05T13:23:55;2.65;;;1.70;;
19782;SDS011;10051;40.294;-3.754;2023-06-05T13:26:21;4.28;;;1.70;;
19782;SDS011;10051;40.294;-3.754;2023-06-05T13:28:47;2.45;;;1.70;;
19782;SDS011;10051;40.294;-3.754;2023-06-05T13:31:13;3.08;;;1.98;;
19782;SDS011;10051;40.294;-3.754;2023-06-05T13:33:42;3.50;;;1.88;;
19782;SDS011;10051;40.294;-3.754;2023-06-05T13:36:07;3.17;;;1.90;;
19782;SDS011;10051;40.294;-3.754;2023-06-05T13:38:35;2.88;;;1.90;;
19782;SDS011;10051;40.294;-3.754;2023-06-05T13:41:22;4.80;;;2.08;;
19782;SDS011;10051;40.294;-3.754;2023-06-05T13:43:49;2.80;;;1.80;;
19782;SDS011;10051;40.294;-3.754;2023-06-05T13:46:15;3.17;;;1.88;;
19782;SDS011;10051;40.294;-3.754;2023-06-05T13:48:41;4.07;;;1.80;;
19782;SDS011;10051;40.294;-3.754;2023-06-05T13:51:09;5.05;;;2.00;;
19782;SDS011;10051;40.294;-3.754;2023-06-05T13:53:37;3.45;;;1.90;;
19782;SDS011;10051;40.294;-3.754;2023-06-05T13:56:05;6.00;;;2.08;;
19782;SDS011;10051;40.294;-3.754;2023-06-05T13:58:31;2.30;;;1.80;;
19782;SDS011;10051;40.294;-3.754;2023-06-05T14:00:58;3.85;;;1.95;;
19782;SDS011;10051;40.294;-3.754;2023-06-05T14:03:25;3.67;;;1.95;;
19782;SDS011;10051;40.294;-3.754;2023-06-05T14:05:51;3.20;;;1.92;;
19782;SDS011;10051;40.294;-3.754;2023-06-05T14:08:18;3.72;;;1.98;;
19782;SDS011;10051;40.294;-3.754;2023-06-05T14:10:55;3.45;;;1.90;;
19782;SDS011;10051;40.294;-3.754;2023-06-05T14:13:29;3.50;;;2.00;;
19782;SDS011;10051;40.294;-3.754;2023-06-05T14:15:56;5.82;;;1.98;;
19782;SDS011;10051;40.294;-3.754;2023-06-05T14:18:25;4.78;;;1.77;;
19782;SDS011;10051;40.294;-3.754;2023-06-05T14:20:51;3.72;;;1.80;;
19782;SDS011;10051;40.294;-3.754;2023-06-05T14:23:19;2.70;;;1.77;;
19782;SDS011;10051;40.294;-3.754;2023-06-05T14:25:49;3.67;;;2.00;;
19782;SDS011;10051;40.294;-3.754;2023-06-05T14:28:18;3.35;;;1.98;;
19782;SDS011;10051;40.294;-3.754;2023-06-05T14:30:47;4.05;;;1.90;;
19782;SDS011;10051;40.294;-3.754;2023-06-05T14:33:14;4.93;;;1.90;;
19782;SDS011;10051;40.294;-3.754;2023-06-05T14:35:44;8.90;;;1.80;;
19782;SDS011;10051;40.294;-3.754;2023-06-05T14:38:12;4.55;;;1.70;;
19782;SDS011;10051;40.294;-3.754;2023-06-05T14:40:39;5.60;;;1.90;;
19782;SDS011;10051;40.294;-3.754;2023-06-05T14:43:16;2.60;;;1.85;;
19782;SDS011;10051;40.294;-3.754;2023-06-05T14:45:44;3.85;;;1.80;;
19782;SDS011;10051;40.294;-3.754;2023-06-05T14:48:12;8.02;;;2.00;;
19782;SDS011;10051;40.294;-3.754;2023-06-05T14:50:40;4.97;;;1.90;;
19782;SDS011;10051;40.294;-3.754;2023-06-05T14:53:07;3.08;;;1.80;;
19782;SDS011;10051;40.294;-3.754;2023-06-05T14:55:33;2.78;;;2.08;;
19782;SDS011;10051;40.294;-3.754;2023-06-05T14:58:07;2.70;;;1.85;;
19782;SDS011;10051;40.294;-3.754;2023-06-05T15:00:35;3.85;;;2.00;;
19782;SDS011;10051;40.294;-3.754;2023-06-05T15:03:02;4.97;;;2.03;;
19782;SDS011;10051;40.294;-3.754;2023-06-05T15:05:30;5.40;;;2.13;;
19782;SDS011;10051;40.294;-3.754;2023-06-05T15:07:57;2.35;;;1.90;;
19782;SDS011;10051;40.294;-3.754;2023-06-05T15:10:24;3.70;;;2.00;;
19782;SDS011;10051;40.294;-3.754;2023-06-05T15:12:51;2.33;;;1.88;;
19782;SDS011;10051;40.294;-3.754;2023-06-05T15:15:25;2.90;;;2.03;;
19782;SDS011;10051;40.294;-3.754;2023-06-05T15:17:51;3.92;;;2.00;;
19782;SDS011;10051;40.294;-3.754;2023-06-05T15:20:18;4.82;;;1.95;;
19782;SDS011;10051;40.294;-3.754;2023-06-05T15:22:52;2.67;;;2.10;;
19782;SDS011;10051;40.294;-3.754;2023-06-05T15:25:24;3.83;;;2.00;;
19782;SDS011;10051;40.294;-3.754;2023-06-05T15:27:52;5.22;;;2.00;;
19782;SDS011;10051;40.294;-3.754;2023-06-05T15:30:19;2.30;;;1.80;;